sensor_id;sensor_type;location;lat;lon;timestamp;pressure;altitude;pressure_sealevel;temperature;humidity
42001;BME280;27689;48.390;10.856;2023-08-21T00:00:27;96610.22;;;23.24;86.49
42001;BME280;27689;48.390;10.856;2023-08-21T00:03:14;96605.28;;;23.27;85.55
42001;BME280;27689;48.390;10.856;2023-08-21T00:06:03;96610.19;;;23.30;85.22
42001;BME280;27689;48.390;10.856;2023-08-21T00:08:56;96603.59;;;23.33;84.74
42001;BME280;27689;48.390;10.856;2023-08-21T00:11:43;96606.47;;;23.31;84.88
42001;BME280;27689;48.390;10.856;2023-08-21T00:14:30;96606.91;;;23.28;85.84
42001;BME280;27689;48.390;10.856;2023-08-21T00:17:22;96603.63;;;23.26;85.37
42001;BME280;27689;48.390;10.856;2023-08-21T00:20:08;96600.78;;;23.21;86.08
42001;BME280;27689;48.390;10.856;2023-08-21T00:23:13;96600.59;;;23.16;86.22
42001;BME280;27689;48.390;10.856;2023-08-21T00:25:59;96603.53;;;23.01;87.25
42001;BME280;27689;48.390;10.856;2023-08-21T00:28:46;96600.88;;;23.01;86.88
42001;BME280;27689;48.390;10.856;2023-08-21T00:31:30;96600.03;;;23.01;87.58
42001;BME280;27689;48.390;10.856;2023-08-21T00:34:17;96594.53;;;22.96;87.63
42001;BME280;27689;48.390;10.856;2023-08-21T00:37:04;96591.88;;;22.89;88.37
42001;BME280;27689;48.390;10.856;2023-08-21T00:39:51;96595.63;;;22.81;88.97
42001;BME280;27689;48.390;10.856;2023-08-21T00:42:38;96589.47;;;22.81;88.17
42001;BME280;27689;48.390;10.856;2023-08-21T00:45:24;96592.34;;;22.79;88.64
42001;BME280;27689;48.390;10.856;2023-08-21T00:48:14;96587.41;;;22.76;88.38
42001;BME280;27689;48.390;10.856;2023-08-21T00:50:59;96591.28;;;22.74;88.22
42001;BME280;27689;48.390;10.856;2023-08-21T00:53:49;96577.97;;;22.67;88.27
42001;BME280;27689;48.390;10.856;2023-08-21T00:56:35;96580.25;;;22.64;88.81
42001;BME280;27689;48.390;10.856;2023-08-21T00:59:25;96587.03;;;22.60;89.06
42001;BME280;27689;48.390;10.856;2023-08-21T01:02:09;96579.66;;;22.55;89.26
42001;BME280;27689;48.390;10.856;2023-08-21T01:04:56;96588.94;;;22.39;93.13
42001;BME280;27689;48.390;10.856;2023-08-21T01:10:54;96582.59;;;22.34;92.28
42001;BME280;27689;48.390;10.856;2023-08-21T01:13:56;96585.25;;;22.34;91.94
42001;BME280;27689;48.390;10.856;2023-08-21T01:16:45;96585.66;;;22.31;91.25
42001;BME280;27689;48.390;10.856;2023-08-21T01:19:46;96586.06;;;22.28;92.66
42001;BME280;27689;48.390;10.856;2023-08-21T01:22:38;96594.53;;;22.18;94.92
42001;BME280;27689;48.390;10.856;2023-08-21T01:25:22;96594.97;;;22.08;96.82
42001;BME280;27689;48.390;10.856;2023-08-21T01:28:12;96601.91;;;21.90;99.54
42001;BME280;27689;48.390;10.856;2023-08-21T01:30:59;96598.84;;;21.79;100.00
42001;BME280;27689;48.390;10.856;2023-08-21T01:36:45;96604.56;;;21.63;100.00
42001;BME280;27689;48.390;10.856;2023-08-21T01:39:29;96600.47;;;21.61;100.00
42001;BME280;27689;48.390;10.856;2023-08-21T01:42:18;96598.22;;;21.64;100.00
42001;BME280;27689;48.390;10.856;2023-08-21T01:45:06;96598.00;;;21.72;100.00
42001;BME280;27689;48.390;10.856;2023-08-21T01:47:52;96611.13;;;21.74;100.00
42001;BME280;27689;48.390;10.856;2023-08-21T01:50:44;96602.91;;;21.56;100.00
42001;BME280;27689;48.390;10.856;2023-08-21T01:53:29;96618.28;;;21.47;100.00
42001;BME280;27689;48.390;10.856;2023-08-21T01:56:15;96608.84;;;21.44;100.00
42001;BME280;27689;48.390;10.856;2023-08-21T01:59:01;96600.22;;;21.42;100.00
42001;BME280;27689;48.390;10.856;2023-08-21T02:01:54;96603.94;;;21.55;100.00
42001;BME280;27689;48.390;10.856;2023-08-21T02:04:41;96608.25;;;21.56;100.00
42001;BME280;27689;48.390;10.856;2023-08-21T02:07:28;96596.16;;;21.60;100.00
42001;BME280;27689;48.390;10.856;2023-08-21T02:10:15;96601.91;;;21.63;100.00
42001;BME280;27689;48.390;10.856;2023-08-21T02:13:02;96600.47;;;21.61;100.00
42001;BME280;27689;48.390;10.856;2023-08-21T02:15:46;96603.94;;;21.61;100.00
42001;BME280;27689;48.390;10.856;2023-08-21T02:18:33;96605.59;;;21.62;99.67
42001;BME280;27689;48.390;10.856;2023-08-21T02:21:25;96601.69;;;21.58;100.00
42001;BME280;27689;48.390;10.856;2023-08-21T02:24:12;96598.41;;;21.56;99.76
42001;BME280;27689;48.390;10.856;2023-08-21T02:26:56;96601.47;;;21.53;99.30
42001;BME280;27689;48.390;10.856;2023-08-21T02:29:51;96606.19;;;21.51;98.25
42001;BME280;27689;48.390;10.856;2023-08-21T02:32:46;96596.13;;;21.46;98.70
42001;BME280;27689;48.390;10.856;2023-08-21T02:35:33;96597.16;;;21.45;98.94
42001;BME280;27689;48.390;10.856;2023-08-21T02:38:22;96604.34;;;21.45;99.23
42001;BME280;27689;48.390;10.856;2023-08-21T02:41:15;96602.25;;;21.40;98.72
42001;BME280;27689;48.390;10.856;2023-08-21T02:44:10;96591.19;;;21.30;100.00
42001;BME280;27689;48.390;10.856;2023-08-21T02:46:59;96602.38;;;21.06;100.00
42001;BME280;27689;48.390;10.856;2023-08-21T02:49:43;96600.25;;;20.95;100.00
42001;BME280;27689;48.390;10.856;2023-08-21T02:52:27;96594.34;;;20.99;100.00
42001;BME280;27689;48.390;10.856;2023-08-21T02:55:17;96607.47;;;21.07;100.00
42001;BME280;27689;48.390;10.856;2023-08-21T02:58:10;96601.94;;;21.02;100.00
42001;BME280;27689;48.390;10.856;2023-08-21T03:00:54;96606.84;;;20.99;100.00
42001;BME280;27689;48.390;10.856;2023-08-21T03:03:41;96601.53;;;20.99;100.00
42001;BME280;27689;48.390;10.856;2023-08-21T03:06:28;96596.81;;;21.01;100.00
42001;BME280;27689;48.390;10.856;2023-08-21T03:09:12;96607.28;;;21.02;100.00
42001;BME280;27689;48.390;10.856;2023-08-21T03:11:57;96592.31;;;21.01;100.00
42001;BME280;27689;48.390;10.856;2023-08-21T03:14:41;96596.81;;;21.01;100.00
42001;BME280;27689;48.390;10.856;2023-08-21T03:17:29;96594.31;;;20.93;100.00
42001;BME280;27689;48.390;10.856;2023-08-21T03:20:16;96600.41;;;20.80;100.00
42001;BME280;27689;48.390;10.856;2023-08-21T03:23:01;96598.53;;;20.67;100.00
42001;BME280;27689;48.390;10.856;2023-08-21T03:25:45;96600.34;;;20.60;100.00
42001;BME280;27689;48.390;10.856;2023-08-21T03:28:29;96600.16;;;20.68;100.00
42001;BME280;27689;48.390;10.856;2023-08-21T03:31:13;96601.19;;;20.67;100.00
42001;BME280;27689;48.390;10.856;2023-08-21T03:33:57;96597.69;;;20.60;100.00
42001;BME280;27689;48.390;10.856;2023-08-21T03:36:41;96604.03;;;20.66;100.00
42001;BME280;27689;48.390;10.856;2023-08-21T03:39:25;96600.50;;;20.52;100.00
42001;BME280;27689;48.390;10.856;2023-08-21T03:42:09;96607.41;;;20.40;100.00
42001;BME280;27689;48.390;10.856;2023-08-21T03:44:53;96603.91;;;20.39;100.00
42001;BME280;27689;48.390;10.856;2023-08-21T03:47:37;96600.69;;;20.51;100.00
42001;BME280;27689;48.390;10.856;2023-08-21T03:50:20;96605.44;;;20.55;100.00
42001;BME280;27689;48.390;10.856;2023-08-21T03:53:04;96602.38;;;20.58;100.00
42001;BME280;27689;48.390;10.856;2023-08-21T03:55:48;96600.72;;;20.57;100.00
42001;BME280;27689;48.390;10.856;2023-08-21T03:58:32;96608.72;;;20.57;100.00
42001;BME280;27689;48.390;10.856;2023-08-21T04:01:16;96607.06;;;20.56;100.00
42001;BME280;27689;48.390;10.856;2023-08-21T04:04:00;96609.53;;;20.58;100.00
42001;BME280;27689;48.390;10.856;2023-08-21T04:06:44;96616.91;;;20.56;100.00
42001;BME280;27689;48.390;10.856;2023-08-21T04:09:27;96621.41;;;20.55;100.00
42001;BME280;27689;48.390;10.856;2023-08-21T04:12:11;96620.59;;;20.55;100.00
42001;BME280;27689;48.390;10.856;2023-08-21T04:14:56;96624.06;;;20.55;100.00
42001;BME280;27689;48.390;10.856;2023-08-21T04:17:40;96626.53;;;20.57;100.00
42001;BME280;27689;48.390;10.856;2023-08-21T04:20:24;96639.03;;;20.56;100.00
42001;BME280;27689;48.390;10.856;2023-08-21T04:23:08;96630.97;;;20.50;100.00
42001;BME280;27689;48.390;10.856;2023-08-21T04:25:52;96644.91;;;20.24;100.00
42001;BME280;27689;48.390;10.856;2023-08-21T04:28:36;96639.97;;;20.21;100.00
42001;BME280;27689;48.390;10.856;2023-08-21T04:31:20;96636.94;;;20.24;100.00
42001;BME280;27689;48.390;10.856;2023-08-21T04:34:05;96643.53;;;20.28;100.00
42001;BME280;27689;48.390;10.856;2023-08-21T04:36:49;96639.03;;;20.28;100.00
42001;BME280;27689;48.390;10.856;2023-08-21T04:39:33;96643.53;;;20.28;100.00
42001;BME280;27689;48.390;10.856;2023-08-21T04:42:18;96639.03;;;20.28;100.00
42001;BME280;27689;48.390;10.856;2023-08-21T04:45:02;96640.63;;;20.23;100.00
42001;BME280;27689;48.390;10.856;2023-08-21T04:47:46;96650.25;;;20.24;100.00
42001;BME280;27689;48.390;10.856;2023-08-21T04:50:30;96645.09;;;20.22;100.00
42001;BME280;27689;48.390;10.856;2023-08-21T04:53:14;96645.31;;;20.21;100.00
42001;BME280;27689;48.390;10.856;2023-08-21T04:56:00;96651.25;;;20.23;100.00
42001;BME280;27689;48.390;10.856;2023-08-21T04:58:44;96645.38;;;20.27;100.00
42001;BME280;27689;48.390;10.856;2023-08-21T05:01:28;96646.63;;;20.31;100.00
42001;BME280;27689;48.390;10.856;2023-08-21T05:04:12;96643.56;;;20.34;100.00
42001;BME280;27689;48.390;10.856;2023-08-21T05:06:56;96647.84;;;20.35;100.00
42001;BME280;27689;48.390;10.856;2023-08-21T05:09:40;96640.88;;;20.34;100.00
42001;BME280;27689;48.390;10.856;2023-08-21T05:12:24;96655.09;;;20.41;100.00
42001;BME280;27689;48.390;10.856;2023-08-21T05:15:09;96654.72;;;20.45;100.00
42001;BME280;27689;48.390;10.856;2023-08-21T05:17:53;96658.63;;;20.49;100.00
42001;BME280;27689;48.390;10.856;2023-08-21T05:20:38;96657.78;;;20.48;100.00
42001;BME280;27689;48.390;10.856;2023-08-21T05:23:22;96652.09;;;20.51;100.00
42001;BME280;27689;48.390;10.856;2023-08-21T05:26:06;96658.88;;;20.54;100.00
42001;BME280;27689;48.390;10.856;2023-08-21T05:28:50;96654.81;;;20.58;100.00
42001;BME280;27689;48.390;10.856;2023-08-21T05:31:34;96653.19;;;20.63;100.00
42001;BME280;27689;48.390;10.856;2023-08-21T05:34:18;96656.66;;;20.64;100.00
42001;BME280;27689;48.390;10.856;2023-08-21T05:37:02;96658.34;;;20.71;100.00
42001;BME280;27689;48.390;10.856;2023-08-21T05:39:46;96654.69;;;20.72;100.00
42001;BME280;27689;48.390;10.856;2023-08-21T05:42:30;96658.38;;;20.78;100.00
42001;BME280;27689;48.390;10.856;2023-08-21T05:45:14;96663.56;;;20.86;100.00
42001;BME280;27689;48.390;10.856;2023-08-21T05:47:57;96669.13;;;20.91;100.00
42001;BME280;27689;48.390;10.856;2023-08-21T05:50:41;96657.84;;;20.96;100.00
42001;BME280;27689;48.390;10.856;2023-08-21T05:53:25;96657.06;;;21.02;100.00
42001;BME280;27689;48.390;10.856;2023-08-21T05:56:09;96664.50;;;21.13;100.00
42001;BME280;27689;48.390;10.856;2023-08-21T05:58:53;96668.03;;;21.20;100.00
42001;BME280;27689;48.390;10.856;2023-08-21T06:01:37;96675.84;;;21.28;100.00
42001;BME280;27689;48.390;10.856;2023-08-21T06:04:22;96674.44;;;21.39;100.00
42001;BME280;27689;48.390;10.856;2023-08-21T06:07:06;96679.41;;;21.49;100.00
42001;BME280;27689;48.390;10.856;2023-08-21T06:09:50;96677.16;;;21.59;100.00
42001;BME280;27689;48.390;10.856;2023-08-21T06:12:34;96676.56;;;21.70;100.00
42001;BME280;27689;48.390;10.856;2023-08-21T06:15:18;96668.59;;;21.76;100.00
42001;BME280;27689;48.390;10.856;2023-08-21T06:18:01;96676.59;;;21.83;100.00
42001;BME280;27689;48.390;10.856;2023-08-21T06:20:45;96671.50;;;21.95;100.00
42001;BME280;27689;48.390;10.856;2023-08-21T06:23:29;96676.25;;;22.06;100.00
42001;BME280;27689;48.390;10.856;2023-08-21T06:26:13;96679.72;;;22.20;100.00
42001;BME280;27689;48.390;10.856;2023-08-21T06:28:57;96679.94;;;22.31;100.00
42001;BME280;27689;48.390;10.856;2023-08-21T06:31:41;96679.09;;;22.44;98.41
42001;BME280;27689;48.390;10.856;2023-08-21T06:34:25;96682.38;;;22.52;96.90
42001;BME280;27689;48.390;10.856;2023-08-21T06:37:09;96683.59;;;22.63;95.65
42001;BME280;27689;48.390;10.856;2023-08-21T06:39:53;96687.66;;;22.72;94.67
42001;BME280;27689;48.390;10.856;2023-08-21T06:42:37;96686.06;;;22.84;94.60
42001;BME280;27689;48.390;10.856;2023-08-21T06:45:21;96680.22;;;23.01;92.91
42001;BME280;27689;48.390;10.856;2023-08-21T06:48:05;96680.22;;;23.14;91.76
42001;BME280;27689;48.390;10.856;2023-08-21T06:50:49;96678.09;;;23.23;91.06
42001;BME280;27689;48.390;10.856;2023-08-21T06:53:33;96683.44;;;23.29;91.14
42001;BME280;27689;48.390;10.856;2023-08-21T06:56:17;96685.03;;;23.37;90.86
42001;BME280;27689;48.390;10.856;2023-08-21T06:59:01;96683.75;;;23.46;89.20
42001;BME280;27689;48.390;10.856;2023-08-21T07:01:45;96681.25;;;23.58;87.66
42001;BME280;27689;48.390;10.856;2023-08-21T07:04:29;96688.19;;;23.72;85.48
42001;BME280;27689;48.390;10.856;2023-08-21T07:07:13;96681.94;;;23.78;85.04
42001;BME280;27689;48.390;10.856;2023-08-21T07:09:57;96685.56;;;23.90;85.14
42001;BME280;27689;48.390;10.856;2023-08-21T07:12:41;96680.78;;;23.99;82.55
42001;BME280;27689;48.390;10.856;2023-08-21T07:15:25;96685.66;;;24.08;84.16
42001;BME280;27689;48.390;10.856;2023-08-21T07:18:08;96684.50;;;24.22;85.52
42001;BME280;27689;48.390;10.856;2023-08-21T07:20:52;96689.78;;;24.36;85.60
42001;BME280;27689;48.390;10.856;2023-08-21T07:23:37;96686.75;;;24.50;84.25
42001;BME280;27689;48.390;10.856;2023-08-21T07:26:21;96690.97;;;24.65;81.73
42001;BME280;27689;48.390;10.856;2023-08-21T07:29:05;96694.19;;;24.73;82.27
42001;BME280;27689;48.390;10.856;2023-08-21T07:31:49;96686.88;;;24.80;80.58
42001;BME280;27689;48.390;10.856;2023-08-21T07:34:33;96693.00;;;24.87;80.01
42001;BME280;27689;48.390;10.856;2023-08-21T07:37:17;96695.19;;;24.97;80.72
42001;BME280;27689;48.390;10.856;2023-08-21T07:40:01;96696.34;;;25.08;79.18
42001;BME280;27689;48.390;10.856;2023-08-21T07:42:45;96702.59;;;25.20;79.03
42001;BME280;27689;48.390;10.856;2023-08-21T07:45:29;96704.06;;;25.34;79.45
42001;BME280;27689;48.390;10.856;2023-08-21T07:48:12;96692.63;;;25.39;77.57
42001;BME280;27689;48.390;10.856;2023-08-21T07:50:57;96704.50;;;25.49;77.51
42001;BME280;27689;48.390;10.856;2023-08-21T07:53:41;96702.38;;;25.70;77.08
42001;BME280;27689;48.390;10.856;2023-08-21T07:56:24;96705.56;;;25.78;75.20
42001;BME280;27689;48.390;10.856;2023-08-21T07:59:08;96707.56;;;25.83;72.18
42001;BME280;27689;48.390;10.856;2023-08-21T08:01:52;96701.28;;;25.89;71.00
42001;BME280;27689;48.390;10.856;2023-08-21T08:04:36;96708.44;;;25.95;70.83
42001;BME280;27689;48.390;10.856;2023-08-21T08:07:20;96711.00;;;26.02;70.60
42001;BME280;27689;48.390;10.856;2023-08-21T08:10:04;96707.19;;;26.09;72.06
42001;BME280;27689;48.390;10.856;2023-08-21T08:12:48;96719.13;;;26.25;72.10
42001;BME280;27689;48.390;10.856;2023-08-21T08:15:32;96714.28;;;26.45;72.80
42001;BME280;27689;48.390;10.856;2023-08-21T08:18:17;96720.00;;;26.60;69.98
42001;BME280;27689;48.390;10.856;2023-08-21T08:21:01;96713.59;;;26.73;69.46
42001;BME280;27689;48.390;10.856;2023-08-21T08:23:45;96718.50;;;26.88;69.42
42001;BME280;27689;48.390;10.856;2023-08-21T08:26:29;96711.53;;;26.98;70.24
42001;BME280;27689;48.390;10.856;2023-08-21T08:29:13;96716.19;;;27.15;69.72
42001;BME280;27689;48.390;10.856;2023-08-21T08:31:57;96716.59;;;27.35;68.65
42001;BME280;27689;48.390;10.856;2023-08-21T08:34:41;96711.72;;;27.72;65.88
42001;BME280;27689;48.390;10.856;2023-08-21T08:37:25;96715.22;;;28.01;67.75
42001;BME280;27689;48.390;10.856;2023-08-21T08:40:10;96722.97;;;28.14;67.64
42001;BME280;27689;48.390;10.856;2023-08-21T08:42:54;96718.00;;;28.34;65.01
42001;BME280;27689;48.390;10.856;2023-08-21T08:45:38;96717.31;;;28.44;64.78
42001;BME280;27689;48.390;10.856;2023-08-21T08:48:23;96718.53;;;28.70;64.56
42001;BME280;27689;48.390;10.856;2023-08-21T08:51:07;96719.81;;;29.01;65.93
42001;BME280;27689;48.390;10.856;2023-08-21T08:53:51;96723.59;;;29.00;61.27
42001;BME280;27689;48.390;10.856;2023-08-21T08:56:35;96722.97;;;29.15;60.95
42001;BME280;27689;48.390;10.856;2023-08-21T08:59:19;96730.31;;;29.36;63.11
42001;BME280;27689;48.390;10.856;2023-08-21T09:02:03;96724.91;;;29.58;59.65
42001;BME280;27689;48.390;10.856;2023-08-21T09:04:48;96715.91;;;29.74;59.89
42001;BME280;27689;48.390;10.856;2023-08-21T09:07:31;96724.84;;;29.74;59.17
42001;BME280;27689;48.390;10.856;2023-08-21T09:10:15;96719.78;;;29.83;58.64
42001;BME280;27689;48.390;10.856;2023-08-21T09:12:59;96721.81;;;29.93;58.66
42001;BME280;27689;48.390;10.856;2023-08-21T09:15:47;96725.28;;;30.15;59.18
42001;BME280;27689;48.390;10.856;2023-08-21T09:18:32;96711.41;;;30.33;59.25
42001;BME280;27689;48.390;10.856;2023-08-21T09:21:21;96723.53;;;30.58;55.82
42001;BME280;27689;48.390;10.856;2023-08-21T09:24:05;96717.50;;;30.82;57.37
42001;BME280;27689;48.390;10.856;2023-08-21T09:26:49;96720.72;;;30.79;55.75
42001;BME280;27689;48.390;10.856;2023-08-21T09:29:40;96715.38;;;30.90;56.32
42001;BME280;27689;48.390;10.856;2023-08-21T09:32:27;96717.50;;;31.25;57.04
42001;BME280;27689;48.390;10.856;2023-08-21T09:35:13;96716.94;;;31.23;54.68
42001;BME280;27689;48.390;10.856;2023-08-21T09:37:57;96713.19;;;31.29;54.37
42001;BME280;27689;48.390;10.856;2023-08-21T09:40:42;96710.88;;;31.58;54.06
42001;BME280;27689;48.390;10.856;2023-08-21T09:43:27;96713.59;;;31.63;52.78
42001;BME280;27689;48.390;10.856;2023-08-21T09:46:13;96714.47;;;31.68;54.02
42001;BME280;27689;48.390;10.856;2023-08-21T09:48:57;96715.31;;;31.74;52.50
42001;BME280;27689;48.390;10.856;2023-08-21T09:51:41;96712.84;;;31.77;54.25
42001;BME280;27689;48.390;10.856;2023-08-21T09:54:26;96713.13;;;31.81;51.43
42001;BME280;27689;48.390;10.856;2023-08-21T09:57:10;96700.41;;;31.92;51.49
42001;BME280;27689;48.390;10.856;2023-08-21T09:59:56;96704.44;;;31.69;51.56
42001;BME280;27689;48.390;10.856;2023-08-21T10:02:43;96702.56;;;31.79;53.95
42001;BME280;27689;48.390;10.856;2023-08-21T10:05:31;96701.00;;;32.14;54.96
42001;BME280;27689;48.390;10.856;2023-08-21T10:08:16;96705.06;;;32.01;48.00
42001;BME280;27689;48.390;10.856;2023-08-21T10:11:03;96693.09;;;31.87;51.06
42001;BME280;27689;48.390;10.856;2023-08-21T10:13:47;96684.75;;;32.14;49.36
42001;BME280;27689;48.390;10.856;2023-08-21T10:16:32;96686.34;;;32.00;47.53
42001;BME280;27689;48.390;10.856;2023-08-21T10:19:16;96696.34;;;31.84;46.89
42001;BME280;27689;48.390;10.856;2023-08-21T10:22:00;96694.44;;;31.84;48.26
42001;BME280;27689;48.390;10.856;2023-08-21T10:24:46;96692.81;;;31.73;49.64
42001;BME280;27689;48.390;10.856;2023-08-21T10:27:30;96688.72;;;31.71;48.09
42001;BME280;27689;48.390;10.856;2023-08-21T10:30:15;96694.44;;;31.79;49.97
42001;BME280;27689;48.390;10.856;2023-08-21T10:32:59;96686.31;;;31.84;49.32
42001;BME280;27689;48.390;10.856;2023-08-21T10:35:43;96688.53;;;32.03;49.90
42001;BME280;27689;48.390;10.856;2023-08-21T10:38:27;96690.97;;;32.14;47.27
42001;BME280;27689;48.390;10.856;2023-08-21T10:41:11;96680.97;;;32.30;49.03
42001;BME280;27689;48.390;10.856;2023-08-21T10:43:55;96685.88;;;32.43;48.93
42001;BME280;27689;48.390;10.856;2023-08-21T10:46:51;96673.38;;;32.57;50.39
42001;BME280;27689;48.390;10.856;2023-08-21T10:49:35;96678.78;;;32.52;48.38
42001;BME280;27689;48.390;10.856;2023-08-21T10:52:21;96674.47;;;32.46;47.84
42001;BME280;27689;48.390;10.856;2023-08-21T10:55:06;96676.09;;;32.47;49.77
42001;BME280;27689;48.390;10.856;2023-08-21T10:57:49;96679.34;;;32.44;48.36
42001;BME280;27689;48.390;10.856;2023-08-21T11:00:33;96682.31;;;32.53;46.81
42001;BME280;27689;48.390;10.856;2023-08-21T11:03:18;96682.06;;;32.39;46.95
42001;BME280;27689;48.390;10.856;2023-08-21T11:06:08;96681.53;;;32.42;47.61
42001;BME280;27689;48.390;10.856;2023-08-21T11:08:52;96669.56;;;32.58;49.61
42001;BME280;27689;48.390;10.856;2023-08-21T11:11:36;96673.63;;;32.81;49.28
42001;BME280;27689;48.390;10.856;2023-08-21T11:14:24;96678.22;;;32.96;48.43
42001;BME280;27689;48.390;10.856;2023-08-21T11:17:09;96677.06;;;33.22;49.58
42001;BME280;27689;48.390;10.856;2023-08-21T11:19:53;96672.13;;;33.40;47.63
42001;BME280;27689;48.390;10.856;2023-08-21T11:22:37;96671.22;;;33.54;45.05
42001;BME280;27689;48.390;10.856;2023-08-21T11:25:21;96665.47;;;33.66;49.31
42001;BME280;27689;48.390;10.856;2023-08-21T11:28:05;96666.56;;;33.65;47.49
42001;BME280;27689;48.390;10.856;2023-08-21T11:30:49;96672.00;;;33.65;47.18
42001;BME280;27689;48.390;10.856;2023-08-21T11:33:33;96671.22;;;33.54;45.36
42001;BME280;27689;48.390;10.856;2023-08-21T11:36:18;96664.47;;;33.52;46.08
42001;BME280;27689;48.390;10.856;2023-08-21T11:39:02;96667.66;;;33.64;49.72
42001;BME280;27689;48.390;10.856;2023-08-21T11:41:56;96659.78;;;33.62;44.54
42001;BME280;27689;48.390;10.856;2023-08-21T11:44:44;96651.09;;;33.60;43.45
42001;BME280;27689;48.390;10.856;2023-08-21T11:47:32;96661.44;;;33.58;44.46
42001;BME280;27689;48.390;10.856;2023-08-21T11:50:17;96665.22;;;33.62;45.01
42001;BME280;27689;48.390;10.856;2023-08-21T11:53:03;96656.53;;;33.60;43.76
42001;BME280;27689;48.390;10.856;2023-08-21T11:55:47;96658.19;;;33.56;46.86
42001;BME280;27689;48.390;10.856;2023-08-21T11:58:32;96649.13;;;33.76;46.98
42001;BME280;27689;48.390;10.856;2023-08-21T12:01:16;96652.88;;;33.85;41.93
42001;BME280;27689;48.390;10.856;2023-08-21T12:04:00;96650.47;;;33.74;42.23
42001;BME280;27689;48.390;10.856;2023-08-21T12:06:45;96648.84;;;33.83;43.19
42001;BME280;27689;48.390;10.856;2023-08-21T12:09:29;96645.41;;;34.06;42.73
42001;BME280;27689;48.390;10.856;2023-08-21T12:12:12;96649.84;;;34.31;43.25
42001;BME280;27689;48.390;10.856;2023-08-21T12:14:57;96646.91;;;34.27;40.95
42001;BME280;27689;48.390;10.856;2023-08-21T12:17:41;96644.13;;;34.33;41.51
42001;BME280;27689;48.390;10.856;2023-08-21T12:20:24;96642.94;;;34.44;40.80
42001;BME280;27689;48.390;10.856;2023-08-21T12:23:08;96638.78;;;34.51;41.86
42001;BME280;27689;48.390;10.856;2023-08-21T12:25:52;96640.41;;;34.52;41.72
42001;BME280;27689;48.390;10.856;2023-08-21T12:28:36;96638.88;;;34.70;40.82
42001;BME280;27689;48.390;10.856;2023-08-21T12:31:20;96638.81;;;34.75;39.83
42001;BME280;27689;48.390;10.856;2023-08-21T12:34:04;96638.81;;;34.75;40.83
42001;BME280;27689;48.390;10.856;2023-08-21T12:36:51;96629.41;;;34.91;39.17
42001;BME280;27689;48.390;10.856;2023-08-21T12:39:35;96625.31;;;34.94;39.50
42001;BME280;27689;48.390;10.856;2023-08-21T12:42:19;96624.03;;;35.34;39.24
42001;BME280;27689;48.390;10.856;2023-08-21T12:45:03;96629.88;;;35.65;40.98
42001;BME280;27689;48.390;10.856;2023-08-21T12:47:47;96621.28;;;35.77;38.65
42001;BME280;27689;48.390;10.856;2023-08-21T12:50:31;96622.84;;;35.83;39.68
42001;BME280;27689;48.390;10.856;2023-08-21T12:53:15;96628.22;;;35.88;38.21
42001;BME280;27689;48.390;10.856;2023-08-21T12:55:59;96628.28;;;36.01;37.82
42001;BME280;27689;48.390;10.856;2023-08-21T12:58:43;96623.75;;;36.11;37.77
42001;BME280;27689;48.390;10.856;2023-08-21T13:01:27;96610.63;;;36.13;38.63
42001;BME280;27689;48.390;10.856;2023-08-21T13:04:11;96611.97;;;36.15;39.37
42001;BME280;27689;48.390;10.856;2023-08-21T13:06:55;96610.69;;;36.08;38.60
42001;BME280;27689;48.390;10.856;2023-08-21T13:09:38;96607.38;;;36.11;37.47
42001;BME280;27689;48.390;10.856;2023-08-21T13:12:22;96616.28;;;35.84;38.24
42001;BME280;27689;48.390;10.856;2023-08-21T13:15:06;96611.94;;;35.83;40.24
42001;BME280;27689;48.390;10.856;2023-08-21T13:17:54;96606.44;;;36.01;40.93
42001;BME280;27689;48.390;10.856;2023-08-21T13:20:38;96602.44;;;36.13;38.92
42001;BME280;27689;48.390;10.856;2023-08-21T13:23:22;96598.09;;;36.30;40.51
42001;BME280;27689;48.390;10.856;2023-08-21T13:26:06;96594.25;;;36.31;39.50
42001;BME280;27689;48.390;10.856;2023-08-21T13:28:50;96598.94;;;36.45;38.76
42001;BME280;27689;48.390;10.856;2023-08-21T13:31:34;96590.31;;;36.51;40.03
42001;BME280;27689;48.390;10.856;2023-08-21T13:34:17;96593.91;;;36.65;38.60
42001;BME280;27689;48.390;10.856;2023-08-21T13:37:01;96592.94;;;36.75;37.34
42001;BME280;27689;48.390;10.856;2023-08-21T13:39:46;96586.34;;;36.76;38.01
42001;BME280;27689;48.390;10.856;2023-08-21T13:42:30;96578.69;;;36.78;38.41
42001;BME280;27689;48.390;10.856;2023-08-21T13:45:15;96575.94;;;36.92;38.10
42001;BME280;27689;48.390;10.856;2023-08-21T13:48:00;96577.34;;;36.76;38.16
42001;BME280;27689;48.390;10.856;2023-08-21T13:50:44;96572.44;;;36.45;38.11
42001;BME280;27689;48.390;10.856;2023-08-21T13:53:27;96571.97;;;36.24;37.88
42001;BME280;27689;48.390;10.856;2023-08-21T13:56:11;96574.25;;;35.85;38.67
42001;BME280;27689;48.390;10.856;2023-08-21T13:58:55;96566.81;;;35.72;41.20
42001;BME280;27689;48.390;10.856;2023-08-21T14:01:39;96566.06;;;35.28;40.10
42001;BME280;27689;48.390;10.856;2023-08-21T14:04:23;96565.53;;;35.03;40.32
42001;BME280;27689;48.390;10.856;2023-08-21T14:07:07;96561.31;;;34.67;41.51
42001;BME280;27689;48.390;10.856;2023-08-21T14:09:51;96565.28;;;34.80;40.96
42001;BME280;27689;48.390;10.856;2023-08-21T14:12:35;96553.31;;;34.76;42.01
42001;BME280;27689;48.390;10.856;2023-08-21T14:15:19;96554.19;;;34.95;43.35
42001;BME280;27689;48.390;10.856;2023-08-21T14:18:03;96547.88;;;35.00;41.59
42001;BME280;27689;48.390;10.856;2023-08-21T14:20:48;96543.16;;;35.06;40.54
42001;BME280;27689;48.390;10.856;2023-08-21T14:23:32;96555.53;;;34.98;40.62
42001;BME280;27689;48.390;10.856;2023-08-21T14:26:16;96550.00;;;34.84;41.65